createdAt,value
2018-05-25T00:00:28.205Z,100250.97
2018-05-25T00:02:54.528Z,100254.20
2018-05-25T00:05:20.867Z,100249.91
2018-05-25T00:07:47.218Z,100254.13
2018-05-25T00:10:14.330Z,100252.61
2018-05-25T00:12:40.681Z,100247.45
2018-05-25T00:15:07.017Z,100249.69
2018-05-25T00:17:34.069Z,100242.17
2018-05-25T00:20:01.156Z,100243.80
2018-05-25T00:22:27.485Z,100245.50
2018-05-25T00:24:53.847Z,100244.23
2018-05-25T00:27:20.192Z,100243.11
2018-05-25T00:29:46.539Z,100248.30
2018-05-25T00:32:13.618Z,100245.39
2018-05-25T00:34:40.060Z,100251.50
2018-05-25T00:37:06.406Z,100249.64
2018-05-25T00:39:32.705Z,100247.67
2018-05-25T00:41:59.045Z,100246.49
2018-05-25T00:44:25.421Z,100235.84
2018-05-25T00:46:51.808Z,100238.38
2018-05-25T00:49:18.166Z,100239.48
2018-05-25T00:51:44.523Z,100237.19
2018-05-25T00:54:10.895Z,100238.75
2018-05-25T00:56:38.048Z,100232.45
2018-05-25T00:59:04.399Z,100232.53
2018-05-25T01:01:30.772Z,100237.34
2018-05-25T01:03:57.087Z,100236.00
2018-05-25T01:06:23.455Z,100241.09
2018-05-25T01:08:49.826Z,100240.81
2018-05-25T01:11:16.232Z,100237.87
2018-05-25T01:13:43.322Z,100235.65
2018-05-25T01:16:09.702Z,100236.85
2018-05-25T01:18:36.800Z,100229.55
2018-05-25T01:21:03.209Z,100230.68
2018-05-25T01:23:29.576Z,100235.42
2018-05-25T01:25:55.962Z,100235.22
2018-05-25T01:28:22.403Z,100236.30
2018-05-25T01:30:48.746Z,100233.23
2018-05-25T01:33:15.064Z,100232.05
2018-05-25T01:35:42.158Z,100225.77
2018-05-25T01:38:08.509Z,100226.34
2018-05-25T01:40:34.823Z,100223.74
2018-05-25T01:43:01.903Z,100223.16
2018-05-25T01:45:29.032Z,100228.74
2018-05-25T01:50:21.619Z,100224.34
2018-05-25T01:52:48.718Z,100219.60
2018-05-25T01:55:15.096Z,100230.80
2018-05-25T01:57:42.175Z,100226.41
2018-05-25T02:00:08.541Z,100223.27
2018-05-25T02:02:34.889Z,100229.92
2018-05-25T02:05:01.243Z,100230.30
2018-05-25T02:07:28.405Z,100235.14
2018-05-25T02:09:55.515Z,100229.34
2018-05-25T02:12:21.890Z,100226.77
2018-05-25T02:14:48.246Z,100229.84
2018-05-25T02:17:14.614Z,100224.98
2018-05-25T02:19:40.988Z,100224.00
2018-05-25T02:22:07.385Z,100221.71
2018-05-25T02:24:33.745Z,100213.13
2018-05-25T02:27:00.823Z,100222.77
2018-05-25T02:29:27.170Z,100221.68
2018-05-25T02:31:53.554Z,100225.53
2018-05-25T02:34:20.636Z,100230.22
2018-05-25T02:36:46.982Z,100234.66
2018-05-25T02:39:13.325Z,100228.17
2018-05-25T02:41:39.630Z,100223.92
2018-05-25T02:44:06.135Z,100221.47
2018-05-25T02:46:33.251Z,100219.29
2018-05-25T02:49:00.334Z,100230.12
2018-05-25T02:51:26.721Z,100225.38
2018-05-25T02:53:53.067Z,100227.98
2018-05-25T02:56:19.396Z,100227.85
2018-05-25T02:58:45.747Z,100220.44
2018-05-25T03:01:12.828Z,100227.95
2018-05-25T03:03:39.166Z,100227.65
2018-05-25T03:06:05.496Z,100224.23
2018-05-25T03:08:31.869Z,100221.09
2018-05-25T03:10:58.218Z,100225.44
2018-05-25T03:13:24.574Z,100217.00
2018-05-25T03:15:51.651Z,100214.22
2018-05-25T03:18:17.986Z,100215.59
2018-05-25T03:20:44.345Z,100217.73
2018-05-25T03:23:10.708Z,100217.94
2018-05-25T03:25:37.813Z,100224.31
2018-05-25T03:28:04.186Z,100228.22
2018-05-25T03:30:31.308Z,100222.02
2018-05-25T03:32:57.627Z,100227.75
2018-05-25T03:35:23.952Z,100221.11
2018-05-25T03:37:50.329Z,100221.39
2018-05-25T03:40:17.437Z,100225.55
2018-05-25T03:42:43.792Z,100231.12
2018-05-25T03:45:10.182Z,100232.31
2018-05-25T03:47:36.534Z,100243.67
2018-05-25T03:50:02.952Z,100244.39
2018-05-25T03:52:29.290Z,100247.61
2018-05-25T03:54:55.727Z,100241.25
2018-05-25T03:57:22.091Z,100238.64
2018-05-25T04:00:07.946Z,100240.81
2018-05-25T04:02:34.270Z,100237.29
2018-05-25T04:05:00.620Z,100238.78
2018-05-25T04:07:28.149Z,100248.14
2018-05-25T04:09:54.490Z,100244.93
2018-05-25T04:12:21.092Z,100250.94
2018-05-25T04:14:47.481Z,100245.11
2018-05-25T04:17:13.822Z,100248.22
2018-05-25T04:19:40.234Z,100242.72
2018-05-25T04:22:06.604Z,100252.08
2018-05-25T04:24:33.041Z,100253.56
2018-05-25T04:27:00.145Z,100243.49
2018-05-25T04:29:26.511Z,100242.45
2018-05-25T04:31:52.844Z,100246.70
2018-05-25T04:34:19.910Z,100252.23
2018-05-25T04:36:47.027Z,100251.84
2018-05-25T04:39:13.344Z,100259.80
2018-05-25T04:41:39.700Z,100264.52
2018-05-25T04:44:06.062Z,100261.36
2018-05-25T04:46:33.187Z,100269.66
2018-05-25T04:48:59.579Z,100262.88
2018-05-25T04:51:25.983Z,100260.34
2018-05-25T04:53:53.108Z,100262.13
2018-05-25T04:56:20.299Z,100259.97
2018-05-25T04:58:46.673Z,100264.75
2018-05-25T05:01:13.110Z,100260.92
2018-05-25T05:03:39.477Z,100256.76
2018-05-25T05:06:06.617Z,100265.75
2018-05-25T05:08:33.806Z,100261.67
2018-05-25T05:11:00.886Z,100266.86
2018-05-25T05:13:27.273Z,100262.58
2018-05-25T05:15:53.644Z,100262.79
2018-05-25T05:18:20.003Z,100263.50
2018-05-25T05:20:47.881Z,100261.84
2018-05-25T05:23:14.384Z,100252.78
2018-05-25T05:25:40.733Z,100247.91
2018-05-25T05:28:07.198Z,100249.38
2018-05-25T05:30:34.298Z,100248.19
2018-05-25T05:33:00.673Z,100234.26
2018-05-25T05:35:27.780Z,100229.05
2018-05-25T05:37:54.130Z,100232.15
2018-05-25T05:40:20.492Z,100235.34
2018-05-25T05:42:47.578Z,100232.05
2018-05-25T05:45:13.946Z,100233.72
2018-05-25T05:47:41.800Z,100244.09
2018-05-25T05:50:08.159Z,100248.92
2018-05-25T05:52:35.291Z,100255.59
2018-05-25T05:55:02.373Z,100263.75
2018-05-25T05:57:29.579Z,100265.13
2018-05-25T05:59:55.943Z,100254.43
2018-05-25T06:02:23.097Z,100247.09
2018-05-25T06:04:50.190Z,100249.50
2018-05-25T06:07:16.535Z,100256.95
2018-05-25T06:09:42.883Z,100247.11
2018-05-25T06:12:09.214Z,100244.33
2018-05-25T06:14:35.563Z,100246.98
2018-05-25T06:17:01.899Z,100256.20
2018-05-25T06:19:29.043Z,100255.20
2018-05-25T06:21:55.433Z,100256.45
2018-05-25T06:24:21.964Z,100258.48
2018-05-25T06:26:48.334Z,100253.55
2018-05-25T06:29:15.438Z,100253.61
2018-05-25T06:31:41.778Z,100263.88
2018-05-25T06:34:08.166Z,100264.20
2018-05-25T06:36:35.251Z,100270.33
2018-05-25T06:39:01.613Z,100278.10
2018-05-25T06:41:27.961Z,100273.80
2018-05-25T06:43:54.291Z,100280.18
2018-05-25T06:46:20.620Z,100280.09
2018-05-25T06:48:46.994Z,100277.05
2018-05-25T06:51:13.369Z,100276.17
2018-05-25T06:53:39.730Z,100275.25
2018-05-25T06:56:06.088Z,100279.36
2018-05-25T06:58:32.463Z,100273.77
2018-05-25T07:00:58.844Z,100284.12
2018-05-25T07:03:25.941Z,100270.58
2018-05-25T07:05:52.331Z,100272.23
2018-05-25T07:08:18.673Z,100272.00
2018-05-25T07:10:45.045Z,100277.02
2018-05-25T07:13:11.459Z,100265.58
2018-05-25T07:15:38.749Z,100270.53
2018-05-25T07:18:05.145Z,100269.25
2018-05-25T07:20:31.500Z,100270.56
2018-05-25T07:22:57.877Z,100273.86
2018-05-25T07:25:24.968Z,100270.38
2018-05-25T07:27:51.333Z,100272.83
2018-05-25T07:30:17.692Z,100273.95
2018-05-25T07:32:44.059Z,100275.15
2018-05-25T07:35:10.425Z,100275.84
2018-05-25T07:37:38.241Z,100267.05
2018-05-25T07:40:04.624Z,100271.57
2018-05-25T07:42:30.975Z,100270.05
2018-05-25T07:44:58.062Z,100269.83
2018-05-25T07:47:24.390Z,100269.22
2018-05-25T07:49:50.770Z,100279.31
2018-05-25T07:52:17.155Z,100261.44
2018-05-25T07:54:43.521Z,100276.34
2018-05-25T07:57:09.898Z,100265.89
2018-05-25T07:59:36.229Z,100262.27
2018-05-25T08:02:03.320Z,100265.38
2018-05-25T08:04:29.654Z,100261.05
2018-05-25T08:06:55.987Z,100265.16
2018-05-25T08:09:22.318Z,100261.66
2018-05-25T08:11:48.660Z,100262.60
2018-05-25T08:14:15.023Z,100260.43
2018-05-25T08:16:42.111Z,100258.97
2018-05-25T08:19:08.481Z,100258.04
2018-05-25T08:21:34.806Z,100254.32
2018-05-25T08:24:01.125Z,100254.52
2018-05-25T08:26:28.209Z,100256.83
2018-05-25T08:28:55.326Z,100260.98
2018-05-25T08:31:21.661Z,100262.66
2018-05-25T08:33:48.005Z,100260.91
2018-05-25T08:36:14.351Z,100256.59
2018-05-25T08:38:40.767Z,100253.00
2018-05-25T08:41:07.142Z,100254.38
2018-05-25T08:43:33.514Z,100253.56
2018-05-25T08:45:59.855Z,100254.80
2018-05-25T08:48:26.218Z,100254.39
2018-05-25T08:50:53.316Z,100258.78
2018-05-25T08:53:19.654Z,100253.77
2018-05-25T08:55:46.027Z,100261.22
2018-05-25T08:58:12.320Z,100253.30
2018-05-25T09:00:38.680Z,100253.38
2018-05-25T09:03:05.009Z,100255.48
2018-05-25T09:05:31.426Z,100254.34
2018-05-25T09:07:58.463Z,100252.40
2018-05-25T09:10:25.553Z,100244.61
2018-05-25T09:12:52.655Z,100252.80
2018-05-25T09:15:19.009Z,100252.28
2018-05-25T09:17:45.364Z,100247.66
2018-05-25T09:20:12.476Z,100243.23
2018-05-25T09:22:38.801Z,100241.95
2018-05-25T09:25:05.135Z,100248.26
2018-05-25T09:27:31.511Z,100246.20
2018-05-25T09:29:58.689Z,100239.70
2018-05-25T09:32:25.078Z,100241.97
2018-05-25T09:34:51.494Z,100236.50
2018-05-25T09:37:17.838Z,100245.80
2018-05-25T09:39:45.878Z,100240.20
2018-05-25T09:42:12.338Z,100243.04
2018-05-25T09:44:38.761Z,100245.06
2018-05-25T09:47:05.113Z,100243.98
2018-05-25T09:49:32.950Z,100231.50
2018-05-25T09:51:59.310Z,100234.76
2018-05-25T09:54:25.734Z,100243.23
2018-05-25T09:57:00.304Z,100236.87
2018-05-25T09:59:26.658Z,100221.34
2018-05-25T10:01:52.981Z,100233.28
2018-05-25T10:04:19.338Z,100235.00
2018-05-25T10:06:45.719Z,100238.00
2018-05-25T10:09:12.770Z,100226.16
2018-05-25T10:11:39.888Z,100221.79
2018-05-25T10:14:06.260Z,100213.97
2018-05-25T10:16:32.609Z,100223.18
2018-05-25T10:18:58.971Z,100217.66
2018-05-25T10:21:25.375Z,100227.95
2018-05-25T10:23:51.767Z,100229.52
2018-05-25T10:26:18.918Z,100208.83
2018-05-25T10:28:46.020Z,100209.41
2018-05-25T10:31:12.380Z,100204.77
2018-05-25T10:33:38.717Z,100202.45
2018-05-25T10:36:06.581Z,100220.33
2018-05-25T10:38:32.946Z,100206.33
2018-05-25T10:41:00.049Z,100211.05
2018-05-25T10:43:26.351Z,100210.54
2018-05-25T10:45:52.650Z,100205.76
2018-05-25T10:48:19.671Z,100206.13
2018-05-25T10:50:45.992Z,100197.89
2018-05-25T10:53:13.106Z,100194.73
2018-05-25T10:55:39.520Z,100196.17
2018-05-25T10:58:06.650Z,100194.94
2018-05-25T11:00:32.989Z,100198.49
2018-05-25T11:03:00.033Z,100193.84
2018-05-25T11:05:26.295Z,100192.04
2018-05-25T11:07:52.531Z,100189.43
2018-05-25T11:10:18.866Z,100190.41
2018-05-25T11:12:45.102Z,100191.05
2018-05-25T11:15:11.356Z,100188.75
2018-05-25T11:17:37.641Z,100189.07
2018-05-25T11:20:03.990Z,100176.61
2018-05-25T11:22:30.316Z,100182.72
2018-05-25T11:24:56.585Z,100183.53
2018-05-25T11:27:22.864Z,100187.92
2018-05-25T11:29:49.164Z,100178.97
2018-05-25T11:32:15.464Z,100182.25
2018-05-25T11:34:41.799Z,100178.55
2018-05-25T11:37:08.087Z,100182.22
2018-05-25T11:39:34.344Z,100183.37
2018-05-25T11:42:00.613Z,100189.23
2018-05-25T11:44:26.900Z,100183.22
2018-05-25T11:46:53.185Z,100174.42
2018-05-25T11:49:20.250Z,100172.66
2018-05-25T11:51:46.575Z,100171.09
2018-05-25T11:54:13.593Z,100166.41
2018-05-25T11:56:39.862Z,100169.16
2018-05-25T11:59:06.159Z,100165.72
2018-05-25T12:01:32.491Z,100163.61
2018-05-25T12:03:58.785Z,100163.58
2018-05-25T12:06:25.125Z,100158.95
2018-05-25T12:08:51.414Z,100162.27
2018-05-25T12:11:17.744Z,100163.88
2018-05-25T12:13:43.995Z,100165.59
2018-05-25T12:16:10.287Z,100174.53
2018-05-25T12:18:37.333Z,100170.26
2018-05-25T12:21:04.395Z,100177.89
2018-05-25T12:23:31.401Z,100164.88
2018-05-25T12:25:57.694Z,100171.42
2018-05-25T12:28:24.023Z,100173.80
2018-05-25T12:30:50.307Z,100170.66
2018-05-25T12:33:16.641Z,100172.98
2018-05-25T12:35:42.919Z,100168.38
2018-05-25T12:38:09.223Z,100172.30
2018-05-25T12:40:36.276Z,100175.68
2018-05-25T12:43:03.335Z,100162.54
2018-05-25T12:45:29.618Z,100175.68
2018-05-25T12:47:55.928Z,100157.09
2018-05-25T12:50:22.225Z,100161.73
2018-05-25T12:52:48.511Z,100156.80
2018-05-25T12:55:14.843Z,100155.37
2018-05-25T12:57:41.143Z,100155.61
2018-05-25T13:00:07.475Z,100149.34
2018-05-25T13:02:33.767Z,100163.51
2018-05-25T13:05:00.767Z,100161.69
2018-05-25T13:07:27.072Z,100158.67
2018-05-25T13:09:53.360Z,100151.50
2018-05-25T13:12:20.393Z,100156.59
2018-05-25T13:14:46.650Z,100129.61
2018-05-25T13:17:13.738Z,100150.08
2018-05-25T13:19:40.020Z,100137.09
2018-05-25T13:22:07.206Z,100150.91
2018-05-25T13:24:33.501Z,100141.11
2018-05-25T13:27:00.517Z,100146.13
2018-05-25T13:29:28.807Z,100146.33
2018-05-25T13:31:55.115Z,100146.38
2018-05-25T13:34:21.426Z,100144.31
2018-05-25T13:36:47.759Z,100140.91
2018-05-25T13:39:14.081Z,100137.86
2018-05-25T13:41:40.407Z,100134.11
2018-05-25T13:44:06.733Z,100138.08
2018-05-25T13:46:33.078Z,100140.95
2018-05-25T13:48:59.419Z,100139.23
2018-05-25T13:51:25.866Z,100132.56
2018-05-25T13:53:52.202Z,100139.16
2018-05-25T13:56:18.532Z,100147.27
2018-05-25T13:58:44.812Z,100141.87
2018-05-25T14:01:11.938Z,100140.23
2018-05-25T14:03:38.218Z,100133.89
2018-05-25T14:06:04.550Z,100129.31
2018-05-25T14:08:30.804Z,100131.98
2018-05-25T14:10:57.158Z,100123.27
2018-05-25T14:13:23.482Z,100127.28
2018-05-25T14:15:49.866Z,100121.27
2018-05-25T14:18:16.231Z,100108.26
2018-05-25T14:20:42.683Z,100103.09
2018-05-25T14:23:08.983Z,100105.27
2018-05-25T14:25:35.285Z,100104.86
2018-05-25T14:28:01.631Z,100100.68
2018-05-25T14:30:27.979Z,100094.55
2018-05-25T14:32:54.300Z,100098.41
2018-05-25T14:35:20.572Z,100089.17
2018-05-25T14:37:46.836Z,100086.36
2018-05-25T14:40:13.894Z,100081.44
2018-05-25T14:42:40.238Z,100079.58
2018-05-25T14:45:06.562Z,100075.64
2018-05-25T14:47:32.863Z,100078.67
2018-05-25T14:49:59.210Z,100088.55
2018-05-25T14:52:25.573Z,100105.29
2018-05-25T14:54:51.898Z,100109.59
2018-05-25T14:57:18.214Z,100109.67
2018-05-25T14:59:44.586Z,100117.39
2018-05-25T15:02:10.929Z,100124.87
2018-05-25T15:04:37.308Z,100109.91
2018-05-25T15:07:03.604Z,100111.48
2018-05-25T15:09:29.989Z,100116.09
2018-05-25T15:11:56.340Z,100104.05
2018-05-25T15:14:22.668Z,100096.12
2018-05-25T15:16:48.980Z,100090.91
2018-05-25T15:19:15.331Z,100078.30
2018-05-25T15:21:41.628Z,100066.91
2018-05-25T15:24:07.937Z,100073.61
2018-05-25T15:26:35.028Z,100065.56
2018-05-25T15:29:01.378Z,100074.66
2018-05-25T15:31:27.711Z,100069.08
2018-05-25T15:33:54.067Z,100069.67
2018-05-25T15:36:21.158Z,100070.47
2018-05-25T15:38:47.499Z,100077.78
2018-05-25T15:41:13.866Z,100077.71
2018-05-25T15:43:40.374Z,100074.67
2018-05-25T15:46:06.734Z,100090.68
2018-05-25T15:48:40.101Z,100090.05
2018-05-25T15:51:06.513Z,100089.17
2018-05-25T15:53:32.876Z,100083.88
2018-05-25T15:56:00.246Z,100074.11
2018-05-25T15:58:26.598Z,100071.64
2018-05-25T16:00:53.911Z,100066.73
2018-05-25T16:03:20.233Z,100070.33
2018-05-25T16:05:46.543Z,100069.82
2018-05-25T16:08:12.839Z,100071.79
2018-05-25T16:10:39.195Z,100074.48
2018-05-25T16:13:06.235Z,100084.64
2018-05-25T16:15:32.669Z,100073.54
2018-05-25T16:17:59.122Z,100081.44
2018-05-25T16:20:25.444Z,100070.59
2018-05-25T16:22:51.781Z,100076.97
2018-05-25T16:25:18.083Z,100074.66
2018-05-25T16:27:45.175Z,100073.83
2018-05-25T16:30:11.474Z,100077.33
2018-05-25T16:32:38.996Z,100078.48
2018-05-25T16:35:05.367Z,100089.13
2018-05-25T16:37:32.435Z,100095.61
2018-05-25T16:39:58.814Z,100104.87
2018-05-25T16:42:25.233Z,100105.37
2018-05-25T16:44:51.575Z,100100.44
2018-05-25T16:47:17.861Z,100098.75
2018-05-25T16:49:44.538Z,100097.02
2018-05-25T16:52:10.913Z,100097.30
2018-05-25T16:54:38.008Z,100091.87
2018-05-25T16:57:04.350Z,100097.47
2018-05-25T16:59:30.775Z,100100.34
2018-05-25T17:01:57.159Z,100098.77
2018-05-25T17:04:24.175Z,100103.73
2018-05-25T17:06:50.603Z,100097.63
2018-05-25T17:09:16.993Z,100105.31
2018-05-25T17:11:43.356Z,100105.59
2018-05-25T17:14:09.676Z,100101.92
2018-05-25T17:16:36.123Z,100097.56
2018-05-25T17:19:02.477Z,100100.86
2018-05-25T17:21:31.620Z,100101.35
2018-05-25T17:23:58.023Z,100110.41
2018-05-25T17:26:25.179Z,100098.60
2018-05-25T17:28:52.206Z,100108.18
2018-05-25T17:31:18.525Z,100107.67
2018-05-25T17:33:45.191Z,100116.50
2018-05-25T17:36:12.293Z,100114.25
2018-05-25T17:38:38.579Z,100113.38
2018-05-25T17:41:07.704Z,100115.67
2018-05-25T17:43:33.998Z,100116.34
2018-05-25T17:46:00.294Z,100114.94
2018-05-25T17:48:26.591Z,100112.43
2018-05-25T17:50:52.935Z,100117.11
2018-05-25T17:53:19.258Z,100114.38
2018-05-25T17:55:45.554Z,100113.86
2018-05-25T17:58:12.646Z,100114.25
2018-05-25T18:00:39.004Z,100114.04
2018-05-25T18:03:05.325Z,100114.87
2018-05-25T18:05:31.634Z,100115.22
2018-05-25T18:07:58.008Z,100118.91
2018-05-25T18:10:24.362Z,100116.31
2018-05-25T18:12:50.651Z,100127.91
2018-05-25T18:15:17.003Z,100122.63
2018-05-25T18:17:43.438Z,100123.05
2018-05-25T18:20:10.415Z,100124.89
2018-05-25T18:22:37.497Z,100125.50
2018-05-25T18:25:03.776Z,100135.48
2018-05-25T18:27:30.056Z,100136.30
2018-05-25T18:29:56.388Z,100130.16
2018-05-25T18:32:22.686Z,100130.56
2018-05-25T18:34:49.740Z,100132.41
2018-05-25T18:37:16.130Z,100131.85
2018-05-25T18:39:42.692Z,100129.20
2018-05-25T18:42:09.780Z,100133.15
2018-05-25T18:44:36.096Z,100133.45
2018-05-25T18:47:02.455Z,100132.81
2018-05-25T18:49:28.764Z,100131.87
2018-05-25T18:51:55.233Z,100131.24
2018-05-25T18:54:31.578Z,100140.16
2018-05-25T18:56:57.859Z,100137.80
2018-05-25T18:59:24.198Z,100142.66
2018-05-25T19:01:50.511Z,100150.62
2018-05-25T19:04:16.923Z,100150.06
2018-05-25T19:06:43.191Z,100151.00
2018-05-25T19:09:09.448Z,100149.98
2018-05-25T19:11:35.816Z,100160.81
2018-05-25T19:14:02.165Z,100167.95
2018-05-25T19:16:28.459Z,100166.20
2018-05-25T19:18:54.824Z,100172.91
2018-05-25T19:21:21.156Z,100173.92
2018-05-25T19:23:47.504Z,100176.88
2018-05-25T19:26:14.570Z,100183.19
2018-05-25T19:28:41.652Z,100192.03
2018-05-25T19:31:08.011Z,100191.58
2018-05-25T19:33:34.323Z,100198.75
2018-05-25T19:36:00.660Z,100199.41
2018-05-25T19:38:26.992Z,100198.83
2018-05-25T19:40:53.338Z,100210.05
2018-05-25T19:43:19.688Z,100211.78
2018-05-25T19:45:46.840Z,100211.70
2018-05-25T19:48:13.192Z,100213.61
2018-05-25T19:50:40.290Z,100215.20
2018-05-25T19:53:06.653Z,100214.52
2018-05-25T19:55:33.057Z,100215.25
2018-05-25T19:57:59.403Z,100211.84
2018-05-25T20:00:25.778Z,100223.52
2018-05-25T20:02:52.248Z,100219.57
2018-05-25T20:05:18.571Z,100217.21
2018-05-25T20:07:44.971Z,100214.20
2018-05-25T20:10:12.042Z,100224.38
2018-05-25T20:12:38.372Z,100224.54
2018-05-25T20:15:04.712Z,100224.03
2018-05-25T20:17:31.832Z,100224.39
2018-05-25T20:19:58.880Z,100224.59
2018-05-25T20:22:25.959Z,100230.17
2018-05-25T20:24:52.334Z,100224.88
2018-05-25T20:27:18.722Z,100224.38
2018-05-25T20:29:45.022Z,100233.06
2018-05-25T20:32:12.077Z,100229.93
2018-05-25T20:34:38.391Z,100233.20
2018-05-25T20:37:05.442Z,100226.70
2018-05-25T20:39:31.740Z,100225.84
2018-05-25T20:41:58.123Z,100224.20
2018-05-25T20:44:24.490Z,100220.23
2018-05-25T20:46:50.825Z,100218.09
2018-05-25T20:49:17.164Z,100221.61
2018-05-25T20:51:43.552Z,100220.95
2018-05-25T20:54:10.099Z,100222.36
2018-05-25T20:56:36.427Z,100223.37
2018-05-25T20:59:02.725Z,100219.63
2018-05-25T21:01:29.788Z,100221.70
2018-05-25T21:03:56.828Z,100219.72
2018-05-25T21:06:23.926Z,100227.28
2018-05-25T21:08:50.197Z,100231.78
2018-05-25T21:11:16.552Z,100240.66
2018-05-25T21:13:43.581Z,100259.26
2018-05-25T21:16:10.596Z,100252.09
2018-05-25T21:18:37.607Z,100241.91
2018-05-25T21:21:03.876Z,100236.02
2018-05-25T21:23:30.192Z,100240.84
2018-05-25T21:25:56.458Z,100239.70
2018-05-25T21:28:22.818Z,100245.41
2018-05-25T21:30:49.216Z,100254.49
2018-05-25T21:33:15.538Z,100262.39
2018-05-25T21:35:41.943Z,100259.52
2018-05-25T21:38:08.268Z,100255.27
2018-05-25T21:40:34.568Z,100261.19
2018-05-25T21:43:01.632Z,100260.02
2018-05-25T21:45:27.924Z,100260.78
2018-05-25T21:47:54.307Z,100265.33
2018-05-25T21:50:20.575Z,100272.23
2018-05-25T21:52:46.883Z,100264.91
2018-05-25T21:55:13.179Z,100273.48
2018-05-25T21:57:39.480Z,100272.27
2018-05-25T22:00:05.776Z,100271.75
2018-05-25T22:02:32.163Z,100279.89
2018-05-25T22:04:59.210Z,100280.57
2018-05-25T22:07:26.214Z,100272.55
2018-05-25T22:09:52.491Z,100281.80
2018-05-25T22:12:18.778Z,100282.44
2018-05-25T22:14:45.039Z,100284.64
2018-05-25T22:17:11.376Z,100283.52
2018-05-25T22:19:38.428Z,100277.77
2018-05-25T22:22:04.763Z,100282.92
2018-05-25T22:24:31.047Z,100285.42
2018-05-25T22:26:57.356Z,100283.88
2018-05-25T22:29:23.648Z,100274.74
2018-05-25T22:31:49.945Z,100279.48
2018-05-25T22:34:16.247Z,100282.13
2018-05-25T22:36:42.532Z,100282.20
2018-05-25T22:39:08.880Z,100273.67
2018-05-25T22:41:35.241Z,100295.66
2018-05-25T22:44:20.240Z,100292.34
2018-05-25T22:47:05.121Z,100287.84
2018-05-25T22:49:50.043Z,100284.83
2018-05-25T22:52:22.597Z,100289.34
2018-05-25T22:54:52.007Z,100285.90
2018-05-25T22:57:18.316Z,100286.22
2018-05-25T22:59:44.593Z,100282.25
2018-05-25T23:02:10.876Z,100282.77
2018-05-25T23:04:37.927Z,100284.27
2018-05-25T23:07:05.023Z,100283.61
2018-05-25T23:09:31.381Z,100284.20
2018-05-25T23:11:57.663Z,100291.36
2018-05-25T23:14:23.938Z,100292.61
2018-05-25T23:16:50.913Z,100298.26
2018-05-25T23:19:17.915Z,100297.28
2018-05-25T23:21:44.220Z,100302.54
2018-05-25T23:24:10.555Z,100293.09
2018-05-25T23:26:36.880Z,100302.22
2018-05-25T23:29:03.242Z,100306.20
2018-05-25T23:31:29.548Z,100311.67
2018-05-25T23:33:55.874Z,100317.02
2018-05-25T23:36:22.109Z,100312.94
2018-05-25T23:38:48.401Z,100307.36
2018-05-25T23:41:15.480Z,100304.56
2018-05-25T23:43:41.738Z,100304.84
2018-05-25T23:46:08.043Z,100310.67
2018-05-25T23:48:34.390Z,100309.25
2018-05-25T23:51:00.653Z,100311.53
2018-05-25T23:53:26.942Z,100306.64
2018-05-25T23:55:54.182Z,100306.97
2018-05-25T23:58:20.436Z,100304.38
